createdAt,value
2018-09-29T00:03:55.803Z,63.2
2018-09-29T00:19:09.229Z,64
2018-09-29T00:34:22.602Z,65
2018-09-29T00:49:36.048Z,65.5
2018-09-29T01:04:47.533Z,65.8
2018-09-29T01:20:03.466Z,66.5
2018-09-29T01:35:16.779Z,66.7
2018-09-29T01:50:30.029Z,67
2018-09-29T02:05:34.898Z,66.6
2018-09-29T02:20:57.019Z,66.9
2018-09-29T02:36:09.527Z,66.5
2018-09-29T02:51:23.343Z,66.7
2018-09-29T03:06:37.057Z,69.1
2018-09-29T03:21:50.136Z,69.3
2018-09-29T03:37:02.472Z,68.8
2018-09-29T03:52:15.386Z,68
2018-09-29T04:07:28.704Z,68
2018-09-29T04:22:35.569Z,68.5
2018-09-29T04:37:54.270Z,68.8
2018-09-29T04:53:07.109Z,70.5
2018-09-29T05:08:20.299Z,72.3
2018-09-29T05:23:32.985Z,71.3
2018-09-29T05:38:45.800Z,71.1
2018-09-29T05:53:58.984Z,71.9
2018-09-29T06:09:11.926Z,72.8
2018-09-29T06:24:24.911Z,73
2018-09-29T06:39:37.705Z,58.8
2018-09-29T06:54:51.854Z,49.6
2018-09-29T07:10:05.323Z,48.5
2018-09-29T07:25:13.918Z,46.9
2018-09-29T07:40:32.733Z,47.2
2018-09-29T07:55:46.385Z,47.3
2018-09-29T08:11:01.072Z,48.3
2018-09-29T08:26:14.221Z,48
2018-09-29T08:41:28.880Z,47.7
2018-09-29T08:56:43.433Z,46.5
2018-09-29T09:11:58.566Z,45.2
2018-09-29T09:27:10.078Z,45.1
2018-09-29T09:42:29.265Z,43.7
2018-09-29T11:16:39.553Z,30.4
2018-09-29T11:32:09.963Z,28.7
2018-09-29T11:47:32.514Z,27.3
2018-09-29T12:03:11.123Z,28.5
2018-09-29T12:19:44.908Z,26.4
2018-09-29T12:35:16.304Z,27.3
2018-09-29T12:50:48.318Z,24.1
2018-09-29T13:06:20.303Z,22.7
2018-09-29T13:23:56.719Z,23.4
2018-09-29T13:39:29.085Z,22.7
2018-09-29T13:55:01.497Z,22.2
2018-09-29T14:13:40.159Z,22.6
2018-09-29T14:29:12.297Z,23.1
2018-09-29T14:44:44.699Z,23.9
2018-09-29T15:00:16.877Z,23.4
2018-09-29T15:15:48.673Z,23.8
2018-09-29T15:33:24.777Z,23.5
2018-09-29T15:54:07.375Z,24.7
2018-09-29T16:09:39.701Z,25
2018-09-29T16:25:10.897Z,26.4
2018-09-29T16:40:41.826Z,28.2
2018-09-29T16:56:11.570Z,29.3
2018-09-29T17:11:40.747Z,30.2
2018-09-29T17:27:09.913Z,32
2018-09-29T17:42:38.964Z,34.3
2018-09-29T17:58:07.823Z,35.9
2018-09-29T18:13:36.777Z,37.3
2018-09-29T18:29:05.324Z,38.5
2018-09-29T18:44:33.794Z,40.9
2018-09-29T19:00:03.012Z,42.7
2018-09-29T19:15:30.628Z,44.7
2018-09-29T19:30:58.732Z,45.7
2018-09-29T19:46:27.181Z,46.7
2018-09-29T20:01:55.377Z,48.4
2018-09-29T20:17:23.162Z,49.3
2018-09-29T20:32:51.314Z,50.8
2018-09-29T20:48:18.354Z,51.3
2018-09-29T21:03:46.106Z,51.9
2018-09-29T21:19:13.454Z,53.1
2018-09-29T21:34:40.839Z,54.5
2018-09-29T21:50:08.284Z,55.7
2018-09-29T22:05:35.484Z,57.8
2018-09-29T22:21:02.851Z,59
2018-09-29T22:36:29.945Z,58
2018-09-29T22:51:44.293Z,59.5
2018-09-29T23:06:58.634Z,62.1
2018-09-29T23:22:10.842Z,63.7
2018-09-29T23:37:16.184Z,63.9
2018-09-29T23:52:36.760Z,64.8
